Time;durP1;ratioP1;P1;durP2;ratioP2;P2;SDS_P1;SDS_P2;PMS_P1;PMS_P2;Temp;Humidity;BMP_temperature;BMP_pressure;BME280_temperature;BME280_humidity;BME280_pressure;Samples;Min_cycle;Max_cycle;Signal;HPM_P1;HPM_P2
2024/01/17 00:00:39;;;;;;;1.30;1.20;;;-1.10;99.90;;;;;;5155537;27;20051;-71
2024/01/17 00:03:06;;;;;;;1.40;1.30;;;-1.10;99.90;;;;;;5155833;27;20053;-71
2024/01/17 00:05:32;;;;;;;1.30;1.20;;;-0.90;99.90;;;;;;5155468;27;20133;-72
2024/01/17 00:07:58;;;;;;;1.40;1.30;;;-1.10;99.90;;;;;;5155625;27;20039;-71
2024/01/17 00:10:24;;;;;;;1.40;1.30;;;-1.10;99.90;;;;;;5155001;27;20054;-71
2024/01/17 00:12:50;;;;;;;1.40;1.30;;;-1.10;99.90;;;;;;5155084;27;20098;-72
2024/01/17 00:15:18;;;;;;;1.33;1.23;;;-1.10;99.90;;;;;;5155741;27;20047;-71
2024/01/17 00:17:44;;;;;;;1.30;1.20;;;-1.10;99.90;;;;;;5155616;27;20043;-72
2024/01/17 00:20:09;;;;;;;1.40;1.30;;;-1.10;99.90;;;;;;5155268;27;20050;-71
2024/01/17 00:22:35;;;;;;;1.40;1.30;;;-1.10;99.90;;;;;;5155472;27;20095;-71
2024/01/17 00:25:00;;;;;;;1.52;1.42;;;-1.10;99.90;;;;;;5155263;27;20470;-71
2024/01/17 00:27:26;;;;;;;1.40;1.30;;;-1.00;99.90;;;;;;5155280;27;20078;-71
2024/01/17 00:29:57;;;;;;;1.77;1.67;;;-1.10;99.90;;;;;;5155242;27;20050;-71
2024/01/17 00:32:23;;;;;;;1.30;1.20;;;-1.10;99.90;;;;;;5155204;27;20038;-72
2024/01/17 00:34:49;;;;;;;1.40;1.30;;;-1.10;99.90;;;;;;5155580;27;20402;-71
2024/01/17 00:37:14;;;;;;;1.33;1.23;;;-1.10;99.90;;;;;;5155190;27;20031;-71
2024/01/17 00:39:40;;;;;;;1.40;1.30;;;-1.10;99.90;;;;;;5155089;27;20042;-72
2024/01/17 00:42:06;;;;;;;1.60;1.50;;;-1.10;99.90;;;;;;5155098;27;20547;-71
2024/01/17 00:44:32;;;;;;;3.17;2.97;;;-1.00;99.90;;;;;;5155097;27;20042;-72
2024/01/17 00:46:57;;;;;;;1.40;1.30;;;-1.10;99.90;;;;;;5155110;27;20565;-72
2024/01/17 00:49:23;;;;;;;1.48;1.38;;;-1.10;99.90;;;;;;5154763;27;20134;-71
2024/01/17 00:51:49;;;;;;;1.40;1.30;;;-0.80;99.90;;;;;;5154986;27;20043;-71
2024/01/17 00:54:14;;;;;;;1.30;1.20;;;-1.10;99.90;;;;;;5154998;27;20420;-71
2024/01/17 00:56:40;;;;;;;1.40;1.30;;;-1.00;99.90;;;;;;5154852;27;20054;-72
2024/01/17 00:59:05;;;;;;;1.45;1.35;;;-0.10;99.90;;;;;;5155448;27;20038;-72
2024/01/17 01:01:31;;;;;;;1.40;1.30;;;-1.00;99.90;;;;;;5154938;27;20382;-72
2024/01/17 01:03:57;;;;;;;1.48;1.38;;;-1.00;99.90;;;;;;5154963;27;20078;-72
2024/01/17 01:06:23;;;;;;;4.70;1.58;;;-0.50;99.90;;;;;;5154669;27;20058;-71
2024/01/17 01:08:49;;;;;;;1.80;1.70;;;-1.00;99.90;;;;;;5154832;27;20035;-71
2024/01/17 01:11:14;;;;;;;1.42;1.33;;;-1.00;99.90;;;;;;5154884;27;20115;-71
2024/01/17 01:13:40;;;;;;;1.40;1.30;;;-1.00;99.90;;;;;;5154809;27;20039;-71
2024/01/17 01:16:06;;;;;;;1.50;1.40;;;-1.00;99.90;;;;;;5155337;27;20078;-71
2024/01/17 01:18:31;;;;;;;1.50;1.40;;;-1.10;99.90;;;;;;5154906;27;20053;-71
2024/01/17 01:20:57;;;;;;;1.50;1.40;;;-1.10;99.90;;;;;;5155080;27;20463;-71
2024/01/17 01:23:25;;;;;;;1.58;1.48;;;-1.10;99.90;;;;;;5158435;27;20042;-71
2024/01/17 01:25:51;;;;;;;1.50;1.40;;;-1.10;99.90;;;;;;5158299;27;20043;-72
2024/01/17 01:28:16;;;;;;;1.40;1.30;;;-1.20;99.90;;;;;;5158380;27;20065;-71
2024/01/17 01:30:42;;;;;;;1.50;1.40;;;-1.20;99.90;;;;;;5158699;27;20088;-71
2024/01/17 01:33:08;;;;;;;1.55;1.45;;;-1.20;99.90;;;;;;5158496;27;20039;-71
2024/01/17 01:35:33;;;;;;;1.87;1.77;;;-1.00;99.90;;;;;;5158148;27;20367;-71
2024/01/17 01:37:59;;;;;;;1.83;1.70;;;-1.30;99.90;;;;;;5158277;27;20038;-71
2024/01/17 01:40:24;;;;;;;1.60;1.50;;;-1.30;99.90;;;;;;5158084;27;20466;-71
2024/01/17 01:42:50;;;;;;;1.50;1.40;;;-1.30;99.90;;;;;;5158562;27;20151;-71
2024/01/17 01:45:16;;;;;;;1.42;1.33;;;-1.30;99.90;;;;;;5157924;27;20050;-71
2024/01/17 01:47:42;;;;;;;1.30;1.20;;;-1.30;99.90;;;;;;5158021;27;20382;-71
2024/01/17 01:50:11;;;;;;;1.70;1.60;;;-1.30;99.90;;;;;;5157999;27;20083;-71
2024/01/17 01:52:40;;;;;;;1.48;1.38;;;-1.30;99.90;;;;;;5157944;27;20251;-71
2024/01/17 01:55:07;;;;;;;1.48;1.38;;;-1.30;99.90;;;;;;5157641;27;20565;-72
2024/01/17 01:57:36;;;;;;;1.60;1.50;;;-1.30;99.90;;;;;;5157747;27;20050;-71
2024/01/17 02:00:04;;;;;;;1.50;1.40;;;-1.30;99.90;;;;;;5157704;27;20470;-71
2024/01/17 02:02:32;;;;;;;1.60;1.50;;;-1.30;99.90;;;;;;5158040;27;20043;-71
2024/01/17 02:05:00;;;;;;;1.40;1.30;;;-1.20;99.90;;;;;;5157576;27;20478;-71
2024/01/17 02:07:29;;;;;;;1.45;1.35;;;-1.20;99.90;;;;;;5157670;27;20118;-71
2024/01/17 02:09:54;;;;;;;1.40;1.30;;;-1.10;99.90;;;;;;5138954;27;20509;-71
2024/01/17 02:12:20;;;;;;;2.25;2.05;;;-1.20;99.90;;;;;;5157892;27;20047;-71
2024/01/17 02:14:45;;;;;;;1.40;1.30;;;-1.20;99.90;;;;;;5157467;27;20397;-72
2024/01/17 02:17:11;;;;;;;1.50;1.40;;;-1.20;99.90;;;;;;5157520;27;20038;-71
2024/01/17 02:19:41;;;;;;;1.50;1.40;;;-1.30;99.90;;;;;;5157159;27;20443;-71
2024/01/17 02:22:07;;;;;;;1.48;1.38;;;-1.30;99.90;;;;;;5157303;27;20046;-72
2024/01/17 02:24:32;;;;;;;1.40;1.30;;;-0.60;99.90;;;;;;5157377;27;20050;-71
2024/01/17 02:26:59;;;;;;;1.50;1.40;;;-1.30;99.90;;;;;;5157582;27;20038;-71
2024/01/17 02:29:26;;;;;;;7.47;6.93;;;-1.30;99.90;;;;;;5157480;27;20038;-71
2024/01/17 02:31:52;;;;;;;1.50;1.40;;;-1.30;99.90;;;;;;5156715;27;20046;-71
2024/01/17 02:34:18;;;;;;;1.45;1.35;;;-1.30;99.90;;;;;;5156976;27;20117;-70
2024/01/17 02:36:44;;;;;;;1.50;1.40;;;-1.30;99.90;;;;;;5156776;27;20046;-72
2024/01/17 02:39:10;;;;;;;1.50;1.40;;;-1.30;99.90;;;;;;5156930;27;20054;-71
2024/01/17 02:41:36;;;;;;;1.40;1.30;;;-1.30;99.90;;;;;;5156865;27;20035;-72
2024/01/17 02:44:01;;;;;;;1.42;1.33;;;-1.20;99.90;;;;;;5157386;27;20043;-71
2024/01/17 02:46:28;;;;;;;1.52;1.42;;;-1.20;99.90;;;;;;5156764;27;20041;-71
2024/01/17 02:48:53;;;;;;;1.50;1.40;;;-1.30;99.90;;;;;;5156808;27;20385;-71
2024/01/17 02:51:19;;;;;;;1.60;1.50;;;-1.30;99.90;;;;;;5138092;27;20050;-72
2024/01/17 02:53:45;;;;;;;1.50;1.40;;;-1.20;99.90;;;;;;5156562;27;20031;-71
2024/01/17 02:56:10;;;;;;;1.50;1.40;;;-1.30;99.90;;;;;;5156506;27;20119;-72
2024/01/17 02:58:36;;;;;;;1.50;1.40;;;-1.30;99.90;;;;;;5156559;27;20133;-72
2024/01/17 03:01:02;;;;;;;1.60;1.50;;;-1.30;99.90;;;;;;5156483;27;20047;-71
2024/01/17 03:03:27;;;;;;;1.65;1.55;;;-0.20;99.90;;;;;;5156487;27;20039;-71
2024/01/17 03:05:53;;;;;;;1.45;1.35;;;-1.30;99.90;;;;;;5156322;27;20051;-71
2024/01/17 03:08:18;;;;;;;1.40;1.30;;;-1.30;99.90;;;;;;5156285;27;20046;-71
2024/01/17 03:10:44;;;;;;;1.50;1.40;;;-1.20;99.90;;;;;;5156360;27;20058;-71
2024/01/17 03:13:12;;;;;;;3.65;3.45;;;-1.30;99.90;;;;;;5156265;27;20129;-71
2024/01/17 03:15:39;;;;;;;1.88;1.77;;;-1.30;99.90;;;;;;5156109;27;20069;-71
2024/01/17 03:18:08;;;;;;;1.40;1.30;;;-1.30;99.90;;;;;;5156342;27;20047;-71
2024/01/17 03:20:34;;;;;;;1.40;1.30;;;-1.30;99.90;;;;;;5155764;27;20039;-72
2024/01/17 03:22:59;;;;;;;1.45;1.35;;;-1.30;99.90;;;;;;5156044;27;20081;-72
2024/01/17 03:25:25;;;;;;;1.50;1.40;;;-1.30;99.90;;;;;;5156043;27;20074;-72
2024/01/17 03:27:51;;;;;;;1.50;1.40;;;-1.30;99.90;;;;;;5156026;27;20102;-71
2024/01/17 03:30:16;;;;;;;1.50;1.40;;;-1.30;99.90;;;;;;5155974;27;20039;-71
2024/01/17 03:32:42;;;;;;;1.75;1.65;;;-1.30;99.90;;;;;;5155559;27;20107;-71
2024/01/17 03:35:10;;;;;;;1.50;1.40;;;-1.30;99.90;;;;;;5155772;27;20125;-71
2024/01/17 03:37:36;;;;;;;1.50;1.40;;;-1.30;99.90;;;;;;5155696;27;20138;-71
2024/01/17 03:40:02;;;;;;;1.65;1.55;;;-1.40;99.90;;;;;;5155794;27;20117;-71
2024/01/17 03:42:28;;;;;;;1.60;1.50;;;-1.40;99.90;;;;;;5155714;27;20508;-71
2024/01/17 03:44:53;;;;;;;1.50;1.40;;;-1.40;99.90;;;;;;5155016;27;20095;-71
2024/01/17 03:47:19;;;;;;;1.60;1.50;;;-1.40;99.90;;;;;;5155562;27;20107;-71
2024/01/17 03:49:44;;;;;;;1.55;1.45;;;-1.40;99.90;;;;;;5155174;27;20058;-71
2024/01/17 03:52:10;;;;;;;1.50;1.40;;;-1.40;99.90;;;;;;5154777;27;20049;-71
2024/01/17 03:54:39;;;;;;;1.42;1.33;;;-1.40;99.90;;;;;;5156082;27;20042;-71
2024/01/17 03:57:05;;;;;;;1.70;1.60;;;-1.40;99.90;;;;;;5155423;27;20043;-71
2024/01/17 03:59:30;;;;;;;1.60;1.50;;;-1.50;99.90;;;;;;5155539;27;20402;-72
2024/01/17 04:01:56;;;;;;;1.52;1.42;;;-1.40;99.90;;;;;;5155177;27;20042;-71
2024/01/17 04:04:21;;;;;;;1.58;1.48;;;-1.40;99.90;;;;;;5155517;27;20043;-71
2024/01/17 04:06:47;;;;;;;1.50;1.40;;;-1.40;99.90;;;;;;5155119;27;20435;-71
2024/01/17 04:09:13;;;;;;;1.60;1.50;;;-1.40;99.90;;;;;;5155383;27;20046;-72
2024/01/17 04:11:38;;;;;;;1.50;1.40;;;-1.40;99.90;;;;;;5155665;27;20393;-72
2024/01/17 04:14:04;;;;;;;1.58;1.48;;;-1.40;99.90;;;;;;5137042;27;20070;-72
2024/01/17 04:16:30;;;;;;;1.48;1.38;;;-1.40;99.90;;;;;;5155248;27;20061;-71
2024/01/17 04:18:55;;;;;;;5.57;5.18;;;-1.40;99.90;;;;;;5155307;27;20121;-71
2024/01/17 04:21:21;;;;;;;1.48;1.38;;;-1.40;99.90;;;;;;5155088;27;20442;-72
2024/01/17 04:23:48;;;;;;;1.55;1.45;;;-1.50;99.90;;;;;;5155250;27;20035;-71
2024/01/17 04:26:24;;;;;;;1.60;1.50;;;-1.40;99.90;;;;;;5155225;27;20085;-71
2024/01/17 04:28:51;;;;;;;1.50;1.40;;;-1.50;99.90;;;;;;5154895;27;20494;-71
2024/01/17 04:31:24;;;;;;;1.60;1.50;;;-1.40;99.90;;;;;;5155241;27;20046;-71
2024/01/17 04:33:50;;;;;;;1.50;1.40;;;-1.40;99.90;;;;;;5155106;27;20343;-71
2024/01/17 04:36:16;;;;;;;1.50;1.40;;;-1.50;99.90;;;;;;5154942;27;20501;-71
2024/01/17 04:38:42;;;;;;;1.40;1.30;;;-1.50;99.90;;;;;;5155191;27;20043;-72
2024/01/17 04:41:10;;;;;;;16.48;6.93;;;-1.50;99.90;;;;;;5155402;27;20039;-71
2024/01/17 04:43:36;;;;;;;1.40;1.30;;;-1.50;99.90;;;;;;5155070;27;20091;-71
2024/01/17 04:46:01;;;;;;;1.50;1.40;;;-1.50;99.90;;;;;;5155065;27;20043;-72
2024/01/17 04:48:27;;;;;;;1.60;1.50;;;-1.50;99.90;;;;;;5154709;27;20057;-72
2024/01/17 04:50:58;;;;;;;1.60;1.50;;;-1.10;99.90;;;;;;5154784;27;20053;-72
2024/01/17 04:53:24;;;;;;;1.60;1.50;;;-1.50;99.90;;;;;;5154963;27;20061;-71
2024/01/17 04:55:50;;;;;;;1.85;1.75;;;-1.50;99.90;;;;;;5156656;27;20045;-71
2024/01/17 04:58:17;;;;;;;1.40;1.30;;;-1.20;99.90;;;;;;5158928;27;20386;-72
2024/01/17 05:00:46;;;;;;;1.50;1.40;;;-1.50;99.90;;;;;;5158837;27;20051;-71
2024/01/17 05:03:15;;;;;;;1.75;1.65;;;-1.50;99.90;;;;;;5158737;27;20133;-71
2024/01/17 05:05:43;;;;;;;1.45;1.35;;;-1.50;99.90;;;;;;5158733;27;20034;-72
2024/01/17 05:08:10;;;;;;;1.40;1.30;;;-1.50;99.90;;;;;;5158634;27;20089;-71
2024/01/17 05:10:35;;;;;;;1.60;1.50;;;-1.10;99.90;;;;;;5158662;27;20079;-71
2024/01/17 05:13:01;;;;;;;1.60;1.50;;;-1.50;99.90;;;;;;5158621;27;20065;-71
2024/01/17 05:15:27;;;;;;;1.50;1.40;;;-1.50;99.90;;;;;;5158847;27;20078;-71
2024/01/17 05:17:54;;;;;;;1.60;1.50;;;-1.50;99.90;;;;;;5140237;27;20046;-72
2024/01/17 05:20:19;;;;;;;1.70;1.60;;;-1.50;99.90;;;;;;5158753;27;20107;-71
2024/01/17 05:22:45;;;;;;;1.50;1.40;;;-1.50;99.90;;;;;;5140347;27;20043;-72
2024/01/17 05:25:11;;;;;;;1.70;1.60;;;-1.20;99.90;;;;;;5158694;27;20143;-71
2024/01/17 05:27:40;;;;;;;1.70;1.60;;;-1.50;99.90;;;;;;5158499;27;20050;-72
2024/01/17 05:30:09;;;;;;;1.50;1.40;;;-1.50;99.90;;;;;;5158259;27;20047;-72
2024/01/17 05:32:39;;;;;;;1.40;1.30;;;-1.60;99.90;;;;;;5158102;27;20054;-71
2024/01/17 05:35:05;;;;;;;1.50;1.40;;;-1.60;99.90;;;;;;5158174;27;20046;-71
2024/01/17 05:37:31;;;;;;;1.60;1.50;;;-1.60;99.90;;;;;;5158135;27;20130;-71
2024/01/17 05:39:57;;;;;;;1.60;1.50;;;-1.60;99.90;;;;;;5157826;27;20078;-71
2024/01/17 05:42:22;;;;;;;1.50;1.40;;;-1.60;99.90;;;;;;5157942;27;20046;-71
2024/01/17 05:44:48;;;;;;;1.50;1.40;;;-1.60;99.90;;;;;;5157922;27;20129;-72
2024/01/17 05:47:14;;;;;;;1.60;1.50;;;-1.70;99.90;;;;;;5158160;27;20049;-71
2024/01/17 05:49:39;;;;;;;1.70;1.60;;;-1.70;99.90;;;;;;5158210;27;20042;-71
2024/01/17 05:52:05;;;;;;;1.83;1.73;;;-1.70;99.90;;;;;;5157940;27;20035;-72
2024/01/17 05:54:31;;;;;;;1.60;1.50;;;-1.80;99.90;;;;;;5158172;27;20122;-72
2024/01/17 05:56:56;;;;;;;1.60;1.50;;;-1.80;99.90;;;;;;5157658;27;20466;-72
2024/01/17 05:59:22;;;;;;;1.50;1.40;;;-1.80;99.90;;;;;;5157731;27;20038;-71
2024/01/17 06:01:47;;;;;;;1.70;1.60;;;-1.80;99.90;;;;;;5157658;27;20035;-72
2024/01/17 06:04:13;;;;;;;1.83;1.73;;;-1.90;99.90;;;;;;5157651;27;20049;-72
2024/01/17 06:06:39;;;;;;;1.70;1.60;;;-1.90;99.90;;;;;;5157054;27;20039;-71
2024/01/17 06:09:06;;;;;;;1.50;1.40;;;-1.90;99.90;;;;;;5157086;27;20047;-71
2024/01/17 06:11:32;;;;;;;1.65;1.55;;;-1.90;99.90;;;;;;5157488;27;20050;-71
2024/01/17 06:13:59;;;;;;;1.52;1.42;;;-1.90;99.90;;;;;;5157445;27;20326;-72
2024/01/17 06:16:25;;;;;;;1.60;1.50;;;-2.00;99.90;;;;;;5157243;27;20042;-71
2024/01/17 06:18:51;;;;;;;1.80;1.70;;;-2.00;99.90;;;;;;5157051;27;20046;-72
2024/01/17 06:21:16;;;;;;;1.70;1.60;;;-2.00;99.90;;;;;;5157539;27;20058;-75
2024/01/17 06:23:43;;;;;;;1.52;1.42;;;-1.70;99.90;;;;;;5156879;27;20039;-72
2024/01/17 06:26:09;;;;;;;1.60;1.50;;;-0.80;99.90;;;;;;5157147;27;20048;-72
2024/01/17 06:28:35;;;;;;;1.60;1.50;;;-2.10;99.90;;;;;;5157133;27;20043;-75
2024/01/17 06:31:01;;;;;;;1.70;1.60;;;-2.10;99.90;;;;;;5157101;27;20083;-73
2024/01/17 06:33:26;;;;;;;1.70;1.60;;;-2.10;99.90;;;;;;5157049;27;20091;-72
2024/01/17 06:35:52;;;;;;;1.60;1.50;;;-2.10;99.90;;;;;;5157251;27;20426;-73
2024/01/17 06:38:17;;;;;;;1.70;1.60;;;-2.10;99.90;;;;;;5157251;27;20065;-73
2024/01/17 06:40:43;;;;;;;1.60;1.50;;;-2.10;99.90;;;;;;5156700;27;20478;-73
2024/01/17 06:43:08;;;;;;;1.60;1.50;;;-2.10;99.90;;;;;;5156963;27;20043;-72
2024/01/17 06:45:34;;;;;;;1.60;1.50;;;-1.80;99.90;;;;;;5156703;27;20042;-74
2024/01/17 06:48:02;;;;;;;1.90;1.80;;;-2.20;99.90;;;;;;5156692;27;20134;-74
2024/01/17 06:50:27;;;;;;;1.70;1.60;;;-2.20;99.90;;;;;;5156423;27;20059;-73
2024/01/17 06:52:53;;;;;;;1.67;1.58;;;-2.20;99.90;;;;;;5156574;27;20039;-72
2024/01/17 06:55:19;;;;;;;1.60;1.50;;;-2.20;99.90;;;;;;5156528;27;20098;-76
2024/01/17 06:57:45;;;;;;;1.60;1.50;;;-2.20;99.90;;;;;;5156562;27;20271;-72
2024/01/17 07:00:13;;;;;;;1.70;1.60;;;-2.20;99.90;;;;;;5156386;27;20043;-73
2024/01/17 07:02:39;;;;;;;1.60;1.50;;;-2.20;99.90;;;;;;5156034;27;20043;-76
2024/01/17 07:05:06;;;;;;;1.70;1.60;;;-2.20;99.90;;;;;;5138053;27;20405;-74
2024/01/17 07:07:32;;;;;;;1.88;1.70;;;-2.20;99.90;;;;;;5156199;27;20042;-82
2024/01/17 07:09:58;;;;;;;1.70;1.60;;;-1.40;99.90;;;;;;5156613;27;20095;-75
2024/01/17 07:12:23;;;;;;;1.60;1.50;;;-2.30;99.90;;;;;;5156424;27;20367;-76
2024/01/17 07:14:49;;;;;;;1.70;1.60;;;-2.30;99.90;;;;;;5156183;27;20045;-76
2024/01/17 07:17:15;;;;;;;1.60;1.50;;;-1.50;99.90;;;;;;5155779;27;20039;-74
2024/01/17 07:19:41;;;;;;;1.60;1.50;;;-2.30;99.90;;;;;;5137036;27;20049;-73
2024/01/17 07:22:09;;;;;;;1.70;1.60;;;-2.30;99.90;;;;;;5156034;27;20046;-74
2024/01/17 07:24:35;;;;;;;1.60;1.50;;;-1.80;99.90;;;;;;5155989;27;20041;-74
2024/01/17 07:27:00;;;;;;;1.70;1.60;;;-2.30;99.90;;;;;;5155966;27;20038;-74
2024/01/17 07:29:26;;;;;;;1.95;1.85;;;-2.30;99.90;;;;;;5156030;27;20095;-73
2024/01/17 07:31:52;;;;;;;1.60;1.50;;;-2.40;99.90;;;;;;5155567;27;20046;-73
2024/01/17 07:34:18;;;;;;;1.70;1.60;;;-2.40;99.90;;;;;;5155831;27;20038;-73
2024/01/17 07:36:44;;;;;;;1.50;1.40;;;-2.40;99.90;;;;;;5156142;27;20098;-73
2024/01/17 07:39:10;;;;;;;1.90;1.80;;;-2.40;99.90;;;;;;5155761;27;20057;-73
2024/01/17 07:41:36;;;;;;;2.28;2.17;;;-2.40;99.90;;;;;;5137097;27;20046;-74
2024/01/17 07:44:02;;;;;;;1.65;1.55;;;-2.40;99.90;;;;;;5155786;27;20394;-75
2024/01/17 07:46:28;;;;;;;1.60;1.50;;;-1.60;99.90;;;;;;5133716;27;20070;-74
2024/01/17 07:48:54;;;;;;;1.70;1.60;;;-2.30;99.90;;;;;;5141900;27;20061;-74
2024/01/17 07:51:19;;;;;;;1.70;1.60;;;-2.40;99.90;;;;;;5134854;27;20147;-74
2024/01/17 07:53:45;;;;;;;1.70;1.60;;;-2.40;99.90;;;;;;5134562;27;20050;-74
2024/01/17 07:56:11;;;;;;;1.70;1.60;;;-1.10;99.90;;;;;;5134364;27;20039;-74
2024/01/17 07:58:36;;;;;;;2.00;1.90;;;-2.40;99.90;;;;;;5134307;27;20503;-74
2024/01/17 08:01:02;;;;;;;1.70;1.60;;;-2.40;99.90;;;;;;5134310;27;20039;-74
2024/01/17 08:03:28;;;;;;;1.60;1.50;;;-2.40;99.90;;;;;;5134498;27;20051;-74
2024/01/17 08:05:54;;;;;;;1.60;1.50;;;-2.40;99.90;;;;;;5134682;27;20043;-74
2024/01/17 08:08:19;;;;;;;1.60;1.50;;;-2.40;99.90;;;;;;5134532;27;20107;-74
2024/01/17 08:10:45;;;;;;;1.70;1.60;;;-2.20;99.90;;;;;;5134709;28;20047;-73
2024/01/17 08:13:11;;;;;;;1.60;1.50;;;-0.90;99.90;;;;;;5134247;28;20043;-74
2024/01/17 08:15:38;;;;;;;1.70;1.60;;;-2.40;99.90;;;;;;5134006;28;20095;-74
2024/01/17 08:18:04;;;;;;;1.85;1.75;;;-2.30;99.90;;;;;;5134301;28;20440;-73
2024/01/17 08:20:31;;;;;;;1.60;1.50;;;-2.30;99.90;;;;;;5134393;28;20047;-74
2024/01/17 08:22:57;;;;;;;;;;;-2.30;99.90;;;;;;5134755;28;20051;-74
2024/01/17 08:25:25;;;;;;;1.60;1.50;;;-1.90;99.90;;;;;;5115963;28;20350;-74
2024/01/17 08:27:51;;;;;;;1.60;1.50;;;-2.30;99.90;;;;;;5133983;28;20072;-74
2024/01/17 08:30:17;;;;;;;1.60;1.50;;;-2.20;99.90;;;;;;5135170;27;20078;-73
2024/01/17 08:32:45;;;;;;;1.70;1.60;;;-2.20;99.90;;;;;;5138514;27;20409;-73
2024/01/17 08:35:14;;;;;;;1.50;1.40;;;-0.80;99.90;;;;;;5120082;27;20039;-73
2024/01/17 08:37:40;;;;;;;1.50;1.40;;;-2.10;99.90;;;;;;5138458;27;20098;-76
2024/01/17 08:40:07;;;;;;;1.60;1.50;;;-2.10;99.90;;;;;;5138315;27;20051;-69
2024/01/17 08:42:32;;;;;;;1.60;1.50;;;-2.10;99.90;;;;;;5120010;27;20057;-73
2024/01/17 08:44:58;;;;;;;1.60;1.50;;;-2.00;99.90;;;;;;5138064;27;20040;-70
2024/01/17 08:47:23;;;;;;;1.60;1.50;;;-1.90;99.90;;;;;;5138175;27;20100;-72
2024/01/17 08:49:51;;;;;;;1.70;1.60;;;-1.90;99.90;;;;;;5137803;27;20051;-76
2024/01/17 08:52:16;;;;;;;1.60;1.50;;;-1.90;99.90;;;;;;5137781;27;20520;-74
2024/01/17 08:54:42;;;;;;;1.60;1.50;;;-1.90;99.90;;;;;;5137784;27;20035;-76
2024/01/17 08:57:10;;;;;;;1.60;1.50;;;-2.80;99.90;;;;;;5137513;27;20046;-73
2024/01/17 08:59:35;;;;;;;1.70;1.60;;;-0.90;99.90;;;;;;5137385;27;20046;-73
2024/01/17 09:02:02;;;;;;;1.67;1.58;;;-1.80;99.90;;;;;;5137920;27;20043;-71
2024/01/17 09:04:29;;;;;;;3.15;1.60;;;-1.80;99.90;;;;;;5137882;27;20114;-73
2024/01/17 09:06:55;;;;;;;1.60;1.50;;;-1.80;99.90;;;;;;5137554;27;20039;-79
2024/01/17 09:09:22;;;;;;;1.70;1.60;;;-1.70;99.90;;;;;;5137570;27;20395;-74
2024/01/17 09:11:47;;;;;;;1.60;1.50;;;-1.70;99.90;;;;;;5137726;27;20043;-75
2024/01/17 09:14:13;;;;;;;1.70;1.60;;;-1.60;99.90;;;;;;5137224;27;20479;-72
2024/01/17 09:16:39;;;;;;;1.65;1.55;;;-1.60;99.90;;;;;;5137827;27;20482;-72
2024/01/17 09:19:04;;;;;;;1.63;1.52;;;-1.60;99.90;;;;;;5137524;27;20035;-74
2024/01/17 09:21:31;;;;;;;1.50;1.40;;;-1.60;99.90;;;;;;5137523;27;20084;-71
2024/01/17 09:23:57;;;;;;;;;;;-1.40;99.90;;;;;;5137764;27;20051;-74
2024/01/17 09:26:23;;;;;;;1.70;1.60;;;-0.30;99.90;;;;;;5137187;27;19926;-72
2024/01/17 09:28:48;;;;;;;1.60;1.50;;;-1.50;99.90;;;;;;5136945;27;20039;-78
2024/01/17 09:31:14;;;;;;;1.60;1.50;;;-1.40;99.90;;;;;;5137284;27;20489;-73
2024/01/17 09:33:39;;;;;;;1.70;1.60;;;-1.40;99.90;;;;;;5137382;27;20046;-71
2024/01/17 09:36:05;;;;;;;1.60;1.50;;;-1.30;99.90;;;;;;5137251;27;20043;-71
2024/01/17 09:38:31;;;;;;;1.60;1.50;;;-1.30;99.90;;;;;;5136998;27;20047;-75
2024/01/17 09:40:57;;;;;;;1.52;1.42;;;-1.30;99.90;;;;;;5137135;27;20130;-75
2024/01/17 09:43:23;;;;;;;1.60;1.50;;;-1.20;99.90;;;;;;5135621;27;20039;-70
2024/01/17 09:45:49;;;;;;;1.90;1.80;;;-1.20;99.90;;;;;;5137057;27;20484;-73
2024/01/17 09:48:16;;;;;;;1.50;1.40;;;-1.10;99.90;;;;;;5137044;27;20039;-73
2024/01/17 09:50:43;;;;;;;1.60;1.50;;;-1.10;99.90;;;;;;5118267;27;20525;-73
2024/01/17 09:53:12;;;;;;;1.60;1.50;;;-1.00;99.90;;;;;;5137114;27;20403;-78
2024/01/17 09:55:40;;;;;;;1.60;1.50;;;-1.00;99.90;;;;;;5136816;27;20078;-80
2024/01/17 09:58:06;;;;;;;1.45;1.35;;;-1.00;99.90;;;;;;5136683;27;20055;-75
2024/01/17 10:00:34;;;;;;;1.83;1.50;;;-0.90;99.90;;;;;;5136676;27;20135;-81
2024/01/17 10:03:02;;;;;;;1.50;1.40;;;-1.40;99.90;;;;;;5136707;27;20085;-76
2024/01/17 10:05:30;;;;;;;1.50;1.40;;;-1.00;99.90;;;;;;5136654;27;20047;-80
2024/01/17 10:07:59;;;;;;;1.60;1.50;;;-0.90;99.90;;;;;;5136493;27;20126;-76
2024/01/17 10:10:25;;;;;;;1.70;1.60;;;-0.90;99.90;;;;;;5136587;27;20081;-75
2024/01/17 10:12:57;;;;;;;1.60;1.50;;;-0.90;99.90;;;;;;5118260;27;20606;-75
2024/01/17 10:15:23;;;;;;;1.50;1.40;;;-0.80;99.90;;;;;;5101232;27;20043;-77
2024/01/17 10:17:49;;;;;;;1.58;1.48;;;-0.70;99.90;;;;;;5136286;27;20047;-72
2024/01/17 10:20:16;;;;;;;1.50;1.40;;;-0.70;99.90;;;;;;5136423;27;20066;-71
2024/01/17 10:22:45;;;;;;;1.40;1.30;;;-0.70;99.90;;;;;;5136269;27;20054;-78
2024/01/17 10:25:11;;;;;;;1.50;1.40;;;0.40;99.90;;;;;;5136155;27;20042;-81
2024/01/17 10:27:37;;;;;;;1.83;1.73;;;-0.60;99.90;;;;;;5135861;27;20443;-79
2024/01/17 10:30:04;;;;;;;1.58;1.48;;;-0.60;99.90;;;;;;5136087;27;20043;-69
2024/01/17 10:32:31;;;;;;;;;;;-0.50;99.90;;;;;;5136659;27;20069;-76
2024/01/17 10:34:58;;;;;;;1.45;1.35;;;-0.50;99.90;;;;;;5136060;27;19923;-76
2024/01/17 10:37:25;;;;;;;1.60;1.50;;;-0.40;99.90;;;;;;5135799;27;20043;-79
2024/01/17 10:40:11;;;;;;;1.55;1.45;;;-0.40;99.90;;;;;;5135571;27;20043;-74
2024/01/17 10:42:40;;;;;;;1.90;1.80;;;-0.40;99.90;;;;;;5136223;27;20082;-74
2024/01/17 10:45:07;;;;;;;1.50;1.40;;;-0.40;99.90;;;;;;5135844;27;20137;-75
2024/01/17 10:47:32;;;;;;;1.77;1.67;;;-0.40;99.90;;;;;;5135572;27;20044;-75
2024/01/17 10:49:58;;;;;;;1.60;1.50;;;-0.40;99.90;;;;;;5117174;27;20047;-74
2024/01/17 10:52:25;;;;;;;1.80;1.70;;;-0.40;99.90;;;;;;5135669;27;20543;-75
2024/01/17 10:54:56;;;;;;;1.92;1.83;;;-0.40;99.90;;;;;;5135412;27;20046;-74
2024/01/17 10:57:24;;;;;;;1.90;1.80;;;-0.40;99.90;;;;;;5135561;27;20372;-76
2024/01/17 10:59:51;;;;;;;1.60;1.50;;;-0.40;99.90;;;;;;5138825;27;20071;-73
2024/01/17 11:02:23;;;;;;;1.92;1.83;;;-0.30;99.90;;;;;;5137371;27;20528;-73
2024/01/17 11:04:57;;;;;;;1.45;1.35;;;0.20;99.90;;;;;;5155580;27;20113;-75
2024/01/17 11:07:24;;;;;;;1.50;1.40;;;-0.30;99.90;;;;;;5155136;27;20500;-75
2024/01/17 11:09:51;;;;;;;;;;;-0.20;99.90;;;;;;5156611;27;20038;-82
2024/01/17 11:12:18;;;;;;;1.50;1.40;;;0.00;99.90;;;;;;5165096;27;19923;-80
2024/01/17 11:14:47;;;;;;;1.70;1.60;;;-0.20;99.90;;;;;;5156005;27;20047;-75
2024/01/17 11:17:15;;;;;;;1.40;1.30;;;-0.20;99.90;;;;;;5156414;27;20117;-76
2024/01/17 11:19:44;;;;;;;1.50;1.40;;;-0.10;99.90;;;;;;5156086;27;20161;-75
2024/01/17 11:22:11;;;;;;;1.58;1.48;;;-0.10;99.90;;;;;;5156708;27;20039;-75
2024/01/17 11:25:17;;;;;;;1.70;1.60;;;-0.10;99.90;;;;;;5155898;27;20083;-76
2024/01/17 11:28:05;;;;;;;1.60;1.50;;;0.00;99.90;;;;;;5140894;27;20059;-77
2024/01/17 11:30:59;;;;;;;1.60;1.50;;;0.10;99.90;;;;;;5155910;27;20493;-77
2024/01/17 11:33:26;;;;;;;1.50;1.40;;;0.10;99.90;;;;;;5155944;27;20130;-76
2024/01/17 11:35:53;;;;;;;1.60;1.50;;;0.20;99.90;;;;;;5155748;27;20385;-76
2024/01/17 11:38:24;;;;;;;;;;;0.20;99.90;;;;;;5137869;27;20098;-82
2024/01/17 11:40:50;;;;;;;2.05;1.60;;;0.20;99.90;;;;;;5155977;27;19919;-77
2024/01/17 11:43:16;;;;;;;1.60;1.50;;;0.20;99.90;;;;;;5137261;27;20546;-75
2024/01/17 11:45:42;;;;;;;1.73;1.63;;;0.30;99.90;;;;;;5155728;27;20121;-75
2024/01/17 11:48:16;;;;;;;1.60;1.50;;;0.30;99.90;;;;;;5155779;27;20486;-73
2024/01/17 11:50:41;;;;;;;2.50;2.30;;;0.30;99.90;;;;;;5155714;27;20054;-75
2024/01/17 11:53:08;;;;;;;2.10;2.00;;;0.30;99.90;;;;;;5155442;27;20043;-75
2024/01/17 11:55:48;;;;;;;1.70;1.60;;;0.40;99.90;;;;;;5155465;27;20066;-77
2024/01/17 11:58:15;;;;;;;1.65;1.55;;;0.40;99.90;;;;;;5155578;27;20276;-75
2024/01/17 12:00:41;;;;;;;1.70;1.60;;;0.40;99.90;;;;;;5155476;27;20058;-75
2024/01/17 12:03:07;;;;;;;1.60;1.50;;;0.40;99.90;;;;;;5155424;27;20397;-75
2024/01/17 12:05:36;;;;;;;1.70;1.60;;;0.40;99.90;;;;;;5136352;27;20042;-76
2024/01/17 12:08:05;;;;;;;1.60;1.50;;;0.40;99.90;;;;;;5155960;27;20047;-75
2024/01/17 12:10:31;;;;;;;1.90;1.80;;;0.40;99.90;;;;;;5155369;27;20043;-75
2024/01/17 12:12:58;;;;;;;1.60;1.50;;;0.50;99.90;;;;;;5155341;27;20059;-76
2024/01/17 12:15:23;;;;;;;1.60;1.50;;;0.50;99.90;;;;;;5155473;27;20121;-75
2024/01/17 12:17:50;;;;;;;2.30;2.10;;;0.50;99.90;;;;;;5155278;27;20178;-75
2024/01/17 12:20:16;;;;;;;1.77;1.67;;;0.50;99.90;;;;;;5155233;27;20039;-75
2024/01/17 12:22:50;;;;;;;1.70;1.60;;;0.50;99.90;;;;;;5155267;27;20110;-75
2024/01/17 12:25:17;;;;;;;1.50;1.40;;;0.50;99.90;;;;;;5155351;27;20047;-75
2024/01/17 12:27:42;;;;;;;1.80;1.70;;;0.50;99.90;;;;;;5155617;27;20039;-76
2024/01/17 12:30:08;;;;;;;3.47;3.28;;;0.50;99.90;;;;;;5136694;27;20129;-76
2024/01/17 12:32:34;;;;;;;2.40;1.88;;;0.60;99.90;;;;;;5155247;27;20066;-76
2024/01/17 12:35:00;;;;;;;1.80;1.70;;;0.60;99.90;;;;;;5155136;27;20049;-76
2024/01/17 12:37:28;;;;;;;1.60;1.50;;;0.60;99.90;;;;;;5155038;27;20091;-76
2024/01/17 12:39:54;;;;;;;1.50;1.40;;;0.60;99.90;;;;;;5155417;27;20118;-75
2024/01/17 12:42:20;;;;;;;1.60;1.50;;;0.70;99.90;;;;;;5155069;27;20375;-75
2024/01/17 12:44:46;;;;;;;1.50;1.40;;;0.60;99.90;;;;;;5155056;27;20042;-75
2024/01/17 12:47:13;;;;;;;1.60;1.50;;;0.60;99.90;;;;;;5155091;27;20042;-75